Time;durP1;ratioP1;P1;durP2;ratioP2;P2;SDS_P1;SDS_P2;PMS_P1;PMS_P2;Temp;Humidity;BMP_temperature;BMP_pressure;BME280_temperature;BME280_humidity;BME280_pressure;Samples;Min_cycle;Max_cycle;Signal;HPM_P1;HPM_P2
2023/08/26 00:01:35;;;;;;;5.28;2.60;;;17.10;99.90;;;;;;5102252;28;20040;-67
2023/08/26 00:04:01;;;;;;;6.38;3.75;;;17.20;99.90;;;;;;5101345;28;20126;-67
2023/08/26 00:06:30;;;;;;;10.68;4.05;;;17.20;99.90;;;;;;5103041;28;20474;-65
2023/08/26 00:08:59;;;;;;;10.80;3.70;;;17.30;99.90;;;;;;5100740;28;20027;-67
2023/08/26 00:11:25;;;;;;;13.60;5.60;;;17.30;99.90;;;;;;5102902;28;20026;-66
2023/08/26 00:13:50;;;;;;;6.78;2.30;;;17.30;99.90;;;;;;5101029;28;20020;-67
2023/08/26 00:16:17;;;;;;;13.38;4.45;;;17.30;99.90;;;;;;5101816;28;20047;-66
2023/08/26 00:18:43;;;;;;;7.63;2.42;;;17.30;99.90;;;;;;5102868;28;20055;-66
2023/08/26 00:21:10;;;;;;;12.65;3.70;;;17.30;99.90;;;;;;5100959;28;20028;-67
2023/08/26 00:23:36;;;;;;;9.13;2.13;;;17.20;99.90;;;;;;5100457;28;20471;-67
2023/08/26 00:26:02;;;;;;;8.18;2.38;;;17.30;99.90;;;;;;5102891;28;20031;-67
2023/08/26 00:28:28;;;;;;;8.18;3.22;;;17.30;99.90;;;;;;5100993;28;20028;-67
2023/08/26 00:30:59;;;;;;;6.18;2.92;;;17.30;99.90;;;;;;5101788;28;20015;-67
2023/08/26 00:33:28;;;;;;;7.13;2.90;;;17.30;99.90;;;;;;5102332;28;20035;-67
2023/08/26 00:35:54;;;;;;;7.25;2.65;;;17.40;99.90;;;;;;5100948;28;20051;-65
2023/08/26 00:38:20;;;;;;;9.77;3.95;;;17.30;99.90;;;;;;5100707;28;20460;-65
2023/08/26 00:40:45;;;;;;;8.73;3.85;;;17.20;99.90;;;;;;5102359;28;20028;-65
2023/08/26 00:43:11;;;;;;;12.60;3.25;;;17.00;99.90;;;;;;5101057;28;20032;-66
2023/08/26 00:45:42;;;;;;;11.73;3.85;;;16.90;99.90;;;;;;5101096;28;20028;-65
2023/08/26 00:48:11;;;;;;;9.32;2.97;;;16.80;99.90;;;;;;5100738;28;20495;-65
2023/08/26 00:50:41;;;;;;;7.32;3.63;;;16.70;99.90;;;;;;5101165;28;20058;-64
2023/08/26 00:53:09;;;;;;;8.98;4.00;;;16.60;99.90;;;;;;5102297;28;20076;-64
2023/08/26 00:55:36;;;;;;;8.30;3.38;;;16.60;99.90;;;;;;5100997;28;20028;-65
2023/08/26 00:58:02;;;;;;;7.07;3.20;;;16.60;99.90;;;;;;5100446;28;20107;-65
2023/08/26 01:00:29;;;;;;;13.43;5.43;;;16.40;99.90;;;;;;5101915;28;20111;-65
2023/08/26 01:02:59;;;;;;;10.32;3.97;;;16.40;99.90;;;;;;5100931;28;20035;-65
2023/08/26 01:05:24;;;;;;;10.95;4.10;;;16.30;99.90;;;;;;5099827;28;20027;-65
2023/08/26 01:07:50;;;;;;;10.73;3.70;;;16.30;99.90;;;;;;5100274;28;20043;-64
2023/08/26 01:10:16;;;;;;;9.25;3.28;;;16.20;99.90;;;;;;5101015;28;20482;-64
2023/08/26 01:12:51;;;;;;;7.97;3.63;;;16.20;99.90;;;;;;5102049;28;20028;-64
2023/08/26 01:15:18;;;;;;;9.25;3.70;;;16.10;99.90;;;;;;5101166;28;20458;-65
2023/08/26 01:17:45;;;;;;;11.07;4.63;;;16.10;99.90;;;;;;5081513;28;20087;-65
2023/08/26 01:20:13;;;;;;;8.25;4.30;;;16.10;99.90;;;;;;5090826;28;20024;-65
2023/08/26 01:22:41;;;;;;;8.13;4.38;;;16.00;99.90;;;;;;5091762;28;20024;-65
2023/08/26 01:25:08;;;;;;;11.32;4.82;;;16.00;99.90;;;;;;5091291;28;20398;-64
2023/08/26 01:27:33;;;;;;;14.73;4.78;;;16.00;99.90;;;;;;5091955;28;20054;-64
2023/08/26 01:30:00;;;;;;;14.10;5.15;;;15.90;99.90;;;;;;5091803;28;20021;-65
2023/08/26 01:32:29;;;;;;;14.02;6.28;;;15.90;99.90;;;;;;5092115;28;20070;-65
2023/08/26 01:34:57;;;;;;;10.43;5.68;;;15.90;99.90;;;;;;5095488;28;20074;-66
2023/08/26 01:37:24;;;;;;;11.75;5.60;;;15.80;99.90;;;;;;5095870;28;20031;-66
2023/08/26 01:39:52;;;;;;;12.38;5.80;;;15.80;99.90;;;;;;5095178;28;20028;-66
2023/08/26 01:42:19;;;;;;;9.02;4.47;;;15.80;99.90;;;;;;5096102;28;20040;-66
2023/08/26 01:44:45;;;;;;;7.97;4.13;;;15.70;99.90;;;;;;5095854;28;20069;-66
2023/08/26 01:47:11;;;;;;;7.38;3.88;;;15.70;99.90;;;;;;5107274;28;20390;-66
2023/08/26 01:49:36;;;;;;;11.60;5.55;;;15.70;99.90;;;;;;5116202;28;20088;-66
2023/08/26 01:52:02;;;;;;;8.48;5.10;;;15.60;99.90;;;;;;5116335;28;20433;-66
2023/08/26 01:54:28;;;;;;;8.25;4.40;;;15.50;99.90;;;;;;5116147;28;20387;-66
2023/08/26 01:56:53;;;;;;;9.18;4.63;;;15.50;99.90;;;;;;5116317;28;20085;-66
2023/08/26 01:59:19;;;;;;;8.23;4.43;;;15.40;99.90;;;;;;5114365;28;20028;-66
2023/08/26 02:01:44;;;;;;;8.57;4.35;;;15.40;99.90;;;;;;5116041;28;20052;-66
2023/08/26 02:04:10;;;;;;;9.95;4.30;;;15.30;99.90;;;;;;5116105;28;20027;-66
2023/08/26 02:06:38;;;;;;;13.63;6.18;;;15.30;99.90;;;;;;5115854;28;20068;-66
2023/08/26 02:09:03;;;;;;;10.35;5.05;;;15.30;99.90;;;;;;5116052;28;20027;-66
2023/08/26 02:11:29;;;;;;;11.63;4.95;;;15.20;99.90;;;;;;5115766;28;20106;-66
2023/08/26 02:13:54;;;;;;;6.90;4.35;;;15.20;99.90;;;;;;5114344;28;20085;-66
2023/08/26 02:16:20;;;;;;;10.30;6.18;;;15.20;99.90;;;;;;5115128;28;20050;-66
2023/08/26 02:18:45;;;;;;;10.73;5.30;;;15.20;99.90;;;;;;5115619;28;20031;-65
2023/08/26 02:21:12;;;;;;;8.63;4.43;;;15.10;99.90;;;;;;5115733;28;20024;-65
2023/08/26 02:23:37;;;;;;;9.73;4.68;;;15.10;99.90;;;;;;5115487;28;20035;-65
2023/08/26 02:26:03;;;;;;;6.60;4.25;;;15.00;99.90;;;;;;5115719;28;20035;-66
2023/08/26 02:28:28;;;;;;;6.75;4.10;;;14.90;99.90;;;;;;5115240;28;20038;-65
2023/08/26 02:30:54;;;;;;;11.68;4.72;;;14.90;99.90;;;;;;5115541;28;20024;-67
2023/08/26 02:33:19;;;;;;;7.75;3.85;;;14.80;99.90;;;;;;5115243;28;20061;-66
2023/08/26 02:35:46;;;;;;;7.60;3.97;;;14.80;99.90;;;;;;5115286;28;20077;-66
2023/08/26 02:38:12;;;;;;;5.45;3.55;;;14.70;99.90;;;;;;5115482;28;20432;-65
2023/08/26 02:40:37;;;;;;;7.43;4.07;;;14.70;99.90;;;;;;5115397;28;20039;-67
2023/08/26 02:43:03;;;;;;;7.10;3.90;;;14.70;99.90;;;;;;5114874;28;20027;-66
2023/08/26 02:45:29;;;;;;;8.50;4.03;;;14.70;99.90;;;;;;5114388;28;20028;-66
2023/08/26 02:47:57;;;;;;;6.93;4.35;;;14.70;99.90;;;;;;5096344;28;20502;-66
2023/08/26 02:50:24;;;;;;;8.85;4.40;;;14.60;99.90;;;;;;5093417;28;20073;-66
2023/08/26 02:52:49;;;;;;;8.02;4.05;;;14.70;99.90;;;;;;5094529;28;20448;-67
2023/08/26 02:55:15;;;;;;;7.03;4.32;;;14.60;99.90;;;;;;5094411;28;20128;-66
2023/08/26 02:57:41;;;;;;;8.23;3.58;;;14.60;99.90;;;;;;5094356;28;20024;-67
2023/08/26 03:00:07;;;;;;;7.63;4.20;;;14.50;99.90;;;;;;5094596;28;20055;-67
2023/08/26 03:02:33;;;;;;;7.35;4.40;;;14.60;99.90;;;;;;5094522;28;20040;-67
2023/08/26 03:04:59;;;;;;;7.20;4.20;;;14.50;99.90;;;;;;5094332;28;20024;-67
2023/08/26 03:07:24;;;;;;;5.88;3.97;;;14.50;99.90;;;;;;5094200;28;20039;-67
2023/08/26 03:09:50;;;;;;;8.65;5.07;;;14.60;99.90;;;;;;5094383;28;20020;-67
2023/08/26 03:12:15;;;;;;;7.95;4.85;;;14.60;99.90;;;;;;5094191;28;20028;-67
2023/08/26 03:14:41;;;;;;;8.77;4.38;;;14.60;99.90;;;;;;5094400;28;20093;-66
2023/08/26 03:17:06;;;;;;;8.90;4.85;;;14.60;99.90;;;;;;5094199;28;20035;-67
2023/08/26 03:19:33;;;;;;;10.70;5.28;;;14.60;99.90;;;;;;5094221;28;20144;-67
2023/08/26 03:21:58;;;;;;;7.72;5.00;;;14.70;99.90;;;;;;5093894;28;20081;-67
2023/08/26 03:24:26;;;;;;;10.70;5.32;;;14.70;99.90;;;;;;5094137;28;20024;-67
2023/08/26 03:26:51;;;;;;;8.90;4.70;;;14.70;99.90;;;;;;5093940;28;20028;-66
2023/08/26 03:29:17;;;;;;;9.15;5.43;;;14.80;99.90;;;;;;5094072;28;20077;-66
2023/08/26 03:31:44;;;;;;;9.90;5.35;;;14.70;99.90;;;;;;5093919;28;20024;-66
2023/08/26 03:34:09;;;;;;;10.52;5.40;;;14.70;99.90;;;;;;5093935;28;20035;-67
2023/08/26 03:36:35;;;;;;;10.70;5.55;;;14.70;99.90;;;;;;5093979;28;20020;-67
2023/08/26 03:39:00;;;;;;;9.27;5.00;;;14.70;99.90;;;;;;5093721;28;20125;-67
2023/08/26 03:41:26;;;;;;;10.75;5.65;;;14.70;99.90;;;;;;5093341;28;20028;-67
2023/08/26 03:43:52;;;;;;;9.38;5.05;;;14.70;99.90;;;;;;5093576;28;20021;-66
2023/08/26 03:46:18;;;;;;;10.40;5.38;;;14.80;99.90;;;;;;5097716;28;20054;-67
2023/08/26 03:48:43;;;;;;;11.18;6.35;;;14.80;99.90;;;;;;5113893;28;20027;-67
2023/08/26 03:51:09;;;;;;;10.48;6.63;;;14.80;99.90;;;;;;5114041;28;20076;-67
2023/08/26 03:53:35;;;;;;;10.73;6.40;;;14.70;99.90;;;;;;5114080;28;20390;-67
2023/08/26 03:56:01;;;;;;;10.13;6.30;;;14.70;99.90;;;;;;5113415;28;20435;-67
2023/08/26 03:58:27;;;;;;;11.60;6.78;;;14.70;99.90;;;;;;5113894;28;20031;-67
2023/08/26 04:01:06;;;;;;;12.30;7.05;;;14.60;99.90;;;;;;5113661;28;20109;-67
2023/08/26 04:03:32;;;;;;;13.43;7.22;;;14.60;99.90;;;;;;5113992;28;20062;-69
2023/08/26 04:06:02;;;;;;;15.43;8.57;;;14.60;99.90;;;;;;5113580;28;20035;-66
2023/08/26 04:08:32;;;;;;;16.00;8.88;;;14.60;99.90;;;;;;5113332;28;20459;-67
2023/08/26 04:10:58;;;;;;;16.40;9.43;;;14.70;99.90;;;;;;5113696;28;20527;-67
2023/08/26 04:13:28;;;;;;;21.33;11.30;;;14.60;99.90;;;;;;5113459;28;20024;-67
2023/08/26 04:15:58;;;;;;;18.80;12.90;;;14.70;99.90;;;;;;5113622;28;20042;-67
2023/08/26 04:18:24;;;;;;;24.45;14.27;;;14.70;99.90;;;;;;5113957;28;20114;-67
2023/08/26 04:20:50;;;;;;;24.73;15.93;;;14.70;99.90;;;;;;5113487;28;20050;-67
2023/08/26 04:23:16;;;;;;;23.25;17.08;;;14.70;99.90;;;;;;5113840;28;20031;-67
2023/08/26 04:25:43;;;;;;;26.90;17.80;;;14.70;99.90;;;;;;5113443;28;20068;-67
2023/08/26 04:28:09;;;;;;;28.77;18.77;;;14.70;99.90;;;;;;5113398;28;20078;-67
2023/08/26 04:30:36;;;;;;;25.95;18.75;;;14.70;99.90;;;;;;5113365;27;20054;-67
2023/08/26 04:33:03;;;;;;;28.25;20.10;;;14.80;99.90;;;;;;5113432;28;20114;-67
2023/08/26 04:35:30;;;;;;;29.05;21.00;;;14.80;99.90;;;;;;5112868;28;20027;-67
2023/08/26 04:37:56;;;;;;;33.30;22.60;;;14.80;99.90;;;;;;5113322;28;20172;-67
2023/08/26 04:40:22;;;;;;;32.38;22.40;;;14.80;99.90;;;;;;5113263;28;20107;-67
2023/08/26 04:42:47;;;;;;;30.98;21.65;;;14.80;99.90;;;;;;5113050;28;20023;-67
2023/08/26 04:45:15;;;;;;;29.80;23.17;;;14.90;99.90;;;;;;5112775;28;20463;-67
2023/08/26 04:47:41;;;;;;;29.13;22.02;;;14.90;99.90;;;;;;5096988;28;20036;-65
2023/08/26 04:50:07;;;;;;;28.05;20.48;;;14.90;99.90;;;;;;5092142;28;20388;-66
2023/08/26 04:52:33;;;;;;;32.03;22.35;;;15.00;99.90;;;;;;5092216;28;20031;-66
2023/08/26 04:54:58;;;;;;;24.40;18.88;;;15.10;99.90;;;;;;5092065;28;20055;-66
2023/08/26 04:57:24;;;;;;;28.92;17.20;;;15.20;99.90;;;;;;5092699;28;20028;-65
2023/08/26 04:59:49;;;;;;;29.42;14.15;;;15.20;99.90;;;;;;5092451;28;20035;-66
2023/08/26 05:02:15;;;;;;;24.25;13.93;;;15.30;99.90;;;;;;5092792;28;20067;-66
2023/08/26 05:04:40;;;;;;;21.38;12.90;;;15.20;99.90;;;;;;5092609;28;20029;-66
2023/08/26 05:07:06;;;;;;;28.65;15.65;;;15.20;99.90;;;;;;5092567;28;20035;-66
2023/08/26 05:09:32;;;;;;;28.63;18.35;;;15.20;99.90;;;;;;5091904;28;20074;-67
2023/08/26 05:11:57;;;;;;;33.28;20.88;;;15.20;99.90;;;;;;5091180;28;20026;-66
2023/08/26 05:14:24;;;;;;;34.17;21.52;;;15.20;99.90;;;;;;5092361;28;20103;-67
2023/08/26 05:16:50;;;;;;;35.35;21.05;;;15.20;99.90;;;;;;5092661;28;20467;-66
2023/08/26 05:19:16;;;;;;;33.22;22.50;;;15.20;99.90;;;;;;5091998;28;20138;-66
2023/08/26 05:21:41;;;;;;;35.75;23.48;;;15.10;99.90;;;;;;5092295;28;20073;-67
2023/08/26 05:24:07;;;;;;;41.30;23.17;;;15.20;99.90;;;;;;5091997;28;20028;-67
2023/08/26 05:26:33;;;;;;;36.47;22.55;;;15.10;99.90;;;;;;5092033;28;20073;-67
2023/08/26 05:28:58;;;;;;;34.10;21.02;;;15.20;99.90;;;;;;5092115;28;20062;-68
2023/08/26 05:31:24;;;;;;;38.42;21.67;;;15.20;99.90;;;;;;5092225;28;20375;-67
2023/08/26 05:33:49;;;;;;;35.15;21.77;;;15.20;99.90;;;;;;5091765;28;20028;-67
2023/08/26 05:36:15;;;;;;;37.05;20.63;;;15.30;99.90;;;;;;5092277;28;20510;-67
2023/08/26 05:38:40;;;;;;;30.48;18.55;;;15.40;99.90;;;;;;5092295;28;20102;-67
2023/08/26 05:41:06;;;;;;;31.60;18.85;;;15.30;99.90;;;;;;5092309;28;20039;-67
2023/08/26 05:43:32;;;;;;;38.90;19.15;;;15.40;99.90;;;;;;5092298;28;20024;-67
2023/08/26 05:45:57;;;;;;;38.63;18.15;;;15.50;99.90;;;;;;5093012;28;20413;-67
2023/08/26 05:48:23;;;;;;;31.23;17.38;;;15.50;99.90;;;;;;5111929;28;20111;-67
2023/08/26 05:50:48;;;;;;;28.63;16.52;;;15.50;99.90;;;;;;5112311;28;20027;-67
2023/08/26 05:53:14;;;;;;;28.63;15.50;;;15.60;99.90;;;;;;5112236;28;20020;-67
2023/08/26 05:55:43;;;;;;;27.15;15.05;;;15.80;99.90;;;;;;5112169;28;20036;-67
2023/08/26 05:58:09;;;;;;;22.95;13.48;;;15.80;99.90;;;;;;5112376;28;20031;-67
2023/08/26 06:00:34;;;;;;;23.92;13.05;;;15.90;99.90;;;;;;5112415;28;20084;-67
2023/08/26 06:03:00;;;;;;;26.45;12.68;;;16.00;99.90;;;;;;5111591;28;20040;-67
2023/08/26 06:05:25;;;;;;;23.45;12.55;;;16.00;99.90;;;;;;5111900;28;20080;-67
2023/08/26 06:07:51;;;;;;;21.48;11.27;;;15.90;99.90;;;;;;5112490;28;20050;-68
2023/08/26 06:10:17;;;;;;;24.95;11.75;;;15.90;99.90;;;;;;5112346;28;20024;-67
2023/08/26 06:12:44;;;;;;;26.80;12.57;;;15.90;99.90;;;;;;5112463;28;20047;-67
2023/08/26 06:15:09;;;;;;;18.67;10.15;;;15.90;99.90;;;;;;5112316;28;20080;-67
2023/08/26 06:17:35;;;;;;;23.17;10.65;;;15.90;99.90;;;;;;5111944;28;20031;-66
2023/08/26 06:20:03;;;;;;;20.00;10.77;;;15.80;99.90;;;;;;5112158;28;20040;-66
2023/08/26 06:22:29;;;;;;;20.88;10.57;;;15.70;99.90;;;;;;5115681;28;20024;-68
2023/08/26 06:24:55;;;;;;;26.10;12.38;;;15.60;99.90;;;;;;5115713;28;20046;-66
2023/08/26 06:27:23;;;;;;;24.15;11.68;;;15.60;99.90;;;;;;5115521;28;20028;-66
2023/08/26 06:29:55;;;;;;;20.70;10.68;;;15.60;99.90;;;;;;5115629;28;20024;-66
2023/08/26 06:32:24;;;;;;;23.63;11.88;;;15.60;99.90;;;;;;5115019;28;20391;-67
2023/08/26 06:34:50;;;;;;;21.85;10.82;;;15.60;99.90;;;;;;5115387;28;20047;-67
2023/08/26 06:37:15;;;;;;;21.58;10.23;;;15.70;99.90;;;;;;5115571;28;20379;-67
2023/08/26 06:39:41;;;;;;;21.05;11.40;;;15.80;99.90;;;;;;5115271;28;20048;-67
2023/08/26 06:42:07;;;;;;;21.25;11.10;;;15.90;99.90;;;;;;5115533;28;20035;-67
2023/08/26 06:44:32;;;;;;;20.13;10.38;;;16.00;99.90;;;;;;5115065;28;20032;-67
2023/08/26 06:46:59;;;;;;;23.65;10.07;;;16.30;99.90;;;;;;5104934;28;20024;-67
2023/08/26 06:49:25;;;;;;;18.52;8.25;;;16.80;99.90;;;;;;5094760;28;20028;-67
2023/08/26 06:51:50;;;;;;;23.05;8.88;;;17.10;99.90;;;;;;5094443;28;20030;-66
2023/08/26 06:54:16;;;;;;;21.13;8.85;;;17.30;99.90;;;;;;5094801;28;20028;-66
2023/08/26 06:56:41;;;;;;;16.40;8.25;;;17.30;99.90;;;;;;5093885;28;20028;-67
2023/08/26 06:59:07;;;;;;;28.55;8.80;;;17.30;99.90;;;;;;5094523;28;20411;-67
2023/08/26 07:01:34;;;;;;;17.95;8.10;;;17.20;99.90;;;;;;5094083;28;20052;-66
2023/08/26 07:04:07;;;;;;;21.48;9.98;;;17.10;99.90;;;;;;5094662;28;20402;-66
2023/08/26 07:06:34;;;;;;;18.67;9.07;;;17.00;99.90;;;;;;5094595;28;20032;-66
2023/08/26 07:08:59;;;;;;;25.17;11.10;;;16.90;99.90;;;;;;5094732;28;20053;-66
2023/08/26 07:11:25;;;;;;;23.98;9.93;;;16.80;99.90;;;;;;5094325;28;20029;-67
2023/08/26 07:13:51;;;;;;;19.23;9.43;;;16.80;99.90;;;;;;5093466;28;20039;-66
2023/08/26 07:16:16;;;;;;;18.90;9.25;;;16.80;99.90;;;;;;5093037;28;20044;-68
2023/08/26 07:18:43;;;;;;;18.40;8.90;;;16.70;99.90;;;;;;5094205;28;20032;-66
2023/08/26 07:21:09;;;;;;;22.05;10.02;;;16.60;99.90;;;;;;5093591;28;20036;-66
2023/08/26 07:23:35;;;;;;;17.95;9.48;;;16.50;99.90;;;;;;5092825;28;20065;-66
2023/08/26 07:26:01;;;;;;;20.63;9.75;;;16.40;99.90;;;;;;5094258;28;20347;-66
2023/08/26 07:28:26;;;;;;;22.42;11.05;;;16.30;99.90;;;;;;5093786;28;20032;-67
2023/08/26 07:30:53;;;;;;;24.10;11.40;;;16.20;99.90;;;;;;5093686;28;20031;-67
2023/08/26 07:33:18;;;;;;;22.38;9.88;;;16.20;99.90;;;;;;5093912;28;20032;-66
2023/08/26 07:35:44;;;;;;;16.50;8.50;;;16.10;99.90;;;;;;5099081;28;20036;-66
2023/08/26 07:38:09;;;;;;;17.65;8.90;;;16.10;99.90;;;;;;5103853;28;20027;-66
2023/08/26 07:40:35;;;;;;;15.68;6.95;;;16.00;99.90;;;;;;5102293;28;20040;-67
2023/08/26 07:43:01;;;;;;;11.40;5.55;;;15.90;99.90;;;;;;5104407;28;20020;-67
2023/08/26 07:45:26;;;;;;;9.85;3.90;;;15.80;99.90;;;;;;5103587;28;20028;-66
2023/08/26 07:47:52;;;;;;;10.10;3.33;;;15.60;99.90;;;;;;5103293;28;20026;-66
2023/08/26 07:50:18;;;;;;;12.23;3.35;;;15.40;99.90;;;;;;5104469;28;20151;-67
2023/08/26 07:52:44;;;;;;;8.13;2.97;;;15.30;99.90;;;;;;5102539;28;20097;-66
2023/08/26 07:55:10;;;;;;;5.55;2.80;;;15.20;99.90;;;;;;5102766;28;20053;-66
2023/08/26 07:57:35;;;;;;;10.05;3.20;;;15.10;99.90;;;;;;5103962;28;20019;-66
2023/08/26 08:00:02;;;;;;;5.00;2.67;;;15.00;99.90;;;;;;5107371;28;20383;-66
2023/08/26 08:02:29;;;;;;;7.80;2.58;;;14.90;99.90;;;;;;5098811;28;20154;-66
2023/08/26 08:04:54;;;;;;;4.63;2.40;;;14.90;99.90;;;;;;5100912;28;20502;-68
2023/08/26 08:07:20;;;;;;;10.05;3.28;;;14.90;99.90;;;;;;5093330;28;20028;-67
2023/08/26 08:09:45;;;;;;;7.38;2.53;;;15.00;99.90;;;;;;5093506;28;20035;-67
2023/08/26 08:12:12;;;;;;;7.13;2.10;;;15.00;99.90;;;;;;5093157;28;20031;-67
2023/08/26 08:14:38;;;;;;;10.68;2.70;;;15.10;99.90;;;;;;5092980;28;20369;-65
2023/08/26 08:17:04;;;;;;;7.45;2.80;;;15.20;99.90;;;;;;5093093;28;20031;-65
2023/08/26 08:19:29;;;;;;;6.72;2.40;;;15.30;99.90;;;;;;5090562;28;20357;-66
2023/08/26 08:21:55;;;;;;;8.00;2.50;;;15.40;99.90;;;;;;5091463;28;20035;-65
2023/08/26 08:24:20;;;;;;;7.55;3.22;;;15.40;99.90;;;;;;5093410;28;20030;-67
2023/08/26 08:26:46;;;;;;;8.43;2.80;;;15.30;99.90;;;;;;5111922;28;20464;-66
2023/08/26 08:29:11;;;;;;;7.32;3.45;;;15.20;99.90;;;;;;5106386;28;20036;-66
2023/08/26 08:31:37;;;;;;;8.23;4.10;;;15.20;99.90;;;;;;5113361;28;20200;-66
2023/08/26 08:34:03;;;;;;;12.80;3.30;;;15.10;99.90;;;;;;5113216;28;20109;-66
2023/08/26 08:36:29;;;;;;;9.98;3.60;;;15.10;99.90;;;;;;5111939;28;20402;-65
2023/08/26 08:38:56;;;;;;;8.00;4.63;;;15.10;99.90;;;;;;5113474;28;20028;-66
2023/08/26 08:41:22;;;;;;;9.65;4.03;;;15.10;99.90;;;;;;5109190;28;20032;-67
2023/08/26 08:43:52;;;;;;;7.38;3.97;;;15.20;99.90;;;;;;5112728;28;20050;-66
2023/08/26 08:46:18;;;;;;;6.93;4.10;;;15.20;99.90;;;;;;5099512;28;20494;-67
2023/08/26 08:48:44;;;;;;;8.35;3.80;;;15.20;99.90;;;;;;5113025;28;20023;-67
2023/08/26 08:51:11;;;;;;;7.68;3.53;;;15.30;99.90;;;;;;5096335;28;20394;-67
2023/08/26 08:53:43;;;;;;;10.10;4.28;;;15.30;99.90;;;;;;5092469;28;20028;-67
2023/08/26 08:56:09;;;;;;;6.35;3.50;;;15.40;99.90;;;;;;5107657;28;20039;-67
2023/08/26 08:58:35;;;;;;;10.05;3.75;;;15.40;99.90;;;;;;5112666;28;20176;-67
2023/08/26 09:01:03;;;;;;;4.70;2.35;;;15.60;99.90;;;;;;5112224;28;20051;-66
2023/08/26 09:03:29;;;;;;;7.15;3.08;;;15.70;99.90;;;;;;5112723;28;20032;-67
2023/08/26 09:05:55;;;;;;;5.90;2.80;;;15.80;99.90;;;;;;5112677;28;20415;-66
2023/08/26 09:08:23;;;;;;;6.60;2.92;;;15.80;99.90;;;;;;5111884;28;20027;-67
2023/08/26 09:10:50;;;;;;;6.57;2.67;;;16.00;99.90;;;;;;5113076;28;20059;-68
2023/08/26 09:13:15;;;;;;;9.85;2.10;;;16.10;99.90;;;;;;5113232;28;20034;-68
2023/08/26 09:15:41;;;;;;;10.60;3.45;;;16.10;99.90;;;;;;5112528;28;20044;-68
2023/08/26 09:18:12;;;;;;;8.70;2.78;;;16.10;99.90;;;;;;5111506;28;20026;-67
2023/08/26 09:20:40;;;;;;;4.93;2.92;;;16.10;99.90;;;;;;5112554;28;20031;-65
2023/08/26 09:23:07;;;;;;;8.40;2.92;;;16.10;99.90;;;;;;5112461;28;20040;-66
2023/08/26 09:25:34;;;;;;;5.68;2.10;;;16.00;99.90;;;;;;5111398;28;20452;-66
2023/08/26 09:28:00;;;;;;;6.53;2.05;;;16.20;99.90;;;;;;5112552;28;20040;-67
2023/08/26 09:30:25;;;;;;;2.65;1.85;;;16.30;99.90;;;;;;5112278;28;20455;-67
2023/08/26 09:32:52;;;;;;;3.90;2.40;;;16.70;99.90;;;;;;5112644;28;20144;-67
2023/08/26 09:35:19;;;;;;;4.93;1.67;;;17.00;99.90;;;;;;5112449;28;20042;-66
2023/08/26 09:37:57;;;;;;;7.95;3.78;;;17.20;99.90;;;;;;5112529;28;20055;-66
2023/08/26 09:40:24;;;;;;;4.82;2.30;;;18.20;99.90;;;;;;5112503;28;20532;-66
2023/08/26 09:42:50;;;;;;;6.28;1.83;;;20.00;99.90;;;;;;5112612;28;20027;-65
2023/08/26 09:45:17;;;;;;;7.13;2.17;;;21.70;99.90;;;;;;5111792;28;20031;-66
2023/08/26 09:47:46;;;;;;;7.65;2.80;;;23.20;99.90;;;;;;5096043;28;20426;-66
2023/08/26 09:50:12;;;;;;;2.50;1.13;;;24.70;99.90;;;;;;5091741;28;20452;-65
2023/08/26 09:52:42;;;;;;;4.45;1.45;;;25.30;99.90;;;;;;5092986;28;20049;-67
2023/08/26 09:55:09;;;;;;;5.70;1.20;;;25.60;99.90;;;;;;5096837;28;20054;-65
2023/08/26 09:57:35;;;;;;;3.17;1.60;;;26.30;99.90;;;;;;5116326;28;20043;-65
2023/08/26 10:00:00;;;;;;;5.20;2.00;;;26.20;99.90;;;;;;5111543;28;20032;-66
2023/08/26 10:02:28;;;;;;;4.97;1.70;;;25.90;99.90;;;;;;5115889;28;20120;-65
2023/08/26 10:04:56;;;;;;;3.75;1.45;;;25.20;99.90;;;;;;5115805;28;20111;-65
2023/08/26 10:07:23;;;;;;;3.67;1.88;;;24.10;99.90;;;;;;5116052;28;20050;-65
2023/08/26 10:09:51;;;;;;;6.60;1.50;;;23.50;99.90;;;;;;5115822;28;20035;-65
2023/08/26 10:12:33;;;;;;;3.78;2.30;;;23.60;99.90;;;;;;5116042;28;20035;-65
2023/08/26 10:15:00;;;;;;;;;;;23.70;99.90;;;;;;5115635;28;20035;-66
2023/08/26 10:17:30;;;;;;;3.40;1.45;;;24.30;99.90;;;;;;5115716;28;19929;-64
2023/08/26 10:19:57;;;;;;;3.28;1.60;;;24.50;99.90;;;;;;5115555;28;20032;-64
2023/08/26 10:22:24;;;;;;;5.78;2.15;;;24.20;99.90;;;;;;5115890;28;20038;-65
2023/08/26 10:24:50;;;;;;;7.32;2.38;;;23.60;99.90;;;;;;5115359;28;20076;-65
2023/08/26 10:27:16;;;;;;;5.10;1.83;;;23.10;99.90;;;;;;5115195;28;20031;-65
2023/08/26 10:29:43;;;;;;;4.25;1.95;;;22.60;99.90;;;;;;5111193;28;20443;-66
2023/08/26 10:32:19;;;;;;;4.47;1.65;;;22.00;99.90;;;;;;5095215;28;20035;-65
2023/08/26 10:34:55;;;;;;;9.73;2.63;;;21.40;99.90;;;;;;5110255;28;20043;-65
2023/08/26 10:37:25;;;;;;;5.70;2.42;;;21.10;99.90;;;;;;5115403;28;20376;-65
2023/08/26 10:39:51;;;;;;;9.98;2.95;;;20.90;99.90;;;;;;5115127;28;20039;-66
2023/08/26 10:42:19;;;;;;;5.13;1.98;;;20.70;99.90;;;;;;5115303;28;20027;-66
2023/08/26 10:44:55;;;;;;;5.30;2.53;;;20.60;99.90;;;;;;5115067;28;20057;-65
2023/08/26 10:47:44;;;;;;;3.70;1.90;;;20.30;99.90;;;;;;5102308;28;20035;-65
2023/08/26 10:50:17;;;;;;;8.60;2.20;;;20.10;99.90;;;;;;5112908;28;20047;-66
2023/08/26 10:52:43;;;;;;;3.80;1.27;;;19.70;99.90;;;;;;5114936;28;20024;-66
2023/08/26 10:55:21;;;;;;;6.32;1.48;;;19.40;99.90;;;;;;5115008;28;20039;-66
2023/08/26 10:58:08;;;;;;;2.60;1.10;;;18.90;99.90;;;;;;5111576;28;20039;-66
2023/08/26 11:00:36;;;;;;;4.07;1.75;;;18.40;99.90;;;;;;5097140;28;20028;-66
2023/08/26 11:03:03;;;;;;;4.32;1.77;;;18.20;99.90;;;;;;5094719;28;20052;-66
2023/08/26 11:05:29;;;;;;;6.13;2.30;;;18.00;99.90;;;;;;5094646;28;20064;-66
2023/08/26 11:07:56;;;;;;;5.35;1.98;;;17.80;99.90;;;;;;5092509;28;20050;-66
2023/08/26 11:10:35;;;;;;;5.13;2.45;;;17.70;99.90;;;;;;5094568;28;20036;-66
2023/08/26 11:13:01;;;;;;;8.07;2.40;;;17.50;99.90;;;;;;5094515;28;20032;-66
2023/08/26 11:15:46;;;;;;;7.40;2.65;;;17.40;99.90;;;;;;5097158;28;20506;-66
2023/08/26 11:18:11;;;;;;;7.30;2.85;;;17.40;99.90;;;;;;5113006;28;20034;-66
2023/08/26 11:20:38;;;;;;;8.27;2.58;;;17.40;99.90;;;;;;5114315;28;20110;-66
2023/08/26 11:23:05;;;;;;;12.30;3.25;;;17.60;99.90;;;;;;5114566;28;20146;-66
2023/08/26 11:25:32;;;;;;;7.05;2.60;;;17.70;99.90;;;;;;5114581;28;20037;-66
2023/08/26 11:28:10;;;;;;;10.93;2.17;;;18.00;99.90;;;;;;5114017;28;20016;-67
2023/08/26 11:30:45;;;;;;;11.68;2.80;;;18.90;99.90;;;;;;5114164;28;20051;-65
2023/08/26 11:33:14;;;;;;;8.65;2.03;;;20.60;99.90;;;;;;5113332;28;20106;-65
2023/08/26 11:35:44;;;;;;;5.18;1.75;;;22.20;99.90;;;;;;5114327;28;20043;-66
2023/08/26 11:38:10;;;;;;;10.00;2.72;;;23.80;99.90;;;;;;5114295;27;20028;-65
2023/08/26 11:40:35;;;;;;;6.75;1.75;;;24.90;99.90;;;;;;5107122;28;20031;-66
2023/08/26 11:43:06;;;;;;;10.85;2.78;;;25.20;99.90;;;;;;5093431;28;20024;-67
2023/08/26 11:45:32;;;;;;;11.93;3.38;;;25.10;99.90;;;;;;5098364;28;20452;-67
2023/08/26 11:47:58;;;;;;;6.45;2.63;;;24.70;99.90;;;;;;5095998;28;20074;-66
2023/08/26 11:50:24;;;;;;;6.25;1.83;;;24.90;99.90;;;;;;5093605;28;20020;-66
2023/08/26 11:52:50;;;;;;;12.65;4.75;;;25.60;99.90;;;;;;5093660;28;20081;-66
2023/08/26 11:55:15;;;;;;;11.43;2.78;;;25.70;99.90;;;;;;5095377;28;20044;-66
2023/08/26 11:57:41;;;;;;;8.68;3.38;;;25.60;99.90;;;;;;5114209;28;20020;-66
2023/08/26 12:00:17;;;;;;;8.88;3.38;;;25.40;99.90;;;;;;5113891;28;20119;-65
2023/08/26 12:02:50;;;;;;;8.27;2.88;;;25.00;99.90;;;;;;5112767;28;20039;-65
2023/08/26 12:05:17;;;;;;;9.63;2.00;;;24.20;99.90;;;;;;5102175;28;20047;-66
2023/08/26 12:07:57;;;;;;;6.90;1.95;;;23.50;99.90;;;;;;5106193;28;20111;-65
2023/08/26 12:10:23;;;;;;;7.47;2.22;;;22.90;99.90;;;;;;5103492;28;20039;-66
2023/08/26 12:12:49;;;;;;;5.45;2.45;;;22.10;99.90;;;;;;5101833;28;20100;-66
2023/08/26 12:15:17;;;;;;;6.25;2.33;;;21.50;99.90;;;;;;5103414;28;20028;-66
2023/08/26 12:17:47;;;;;;;13.27;6.85;;;21.10;99.90;;;;;;5102452;28;20521;-66
2023/08/26 12:20:31;;;;;;;7.80;2.45;;;20.80;99.90;;;;;;5100156;28;20035;-66
2023/08/26 12:23:02;;;;;;;5.95;2.80;;;20.70;99.90;;;;;;5111080;28;20100;-66
2023/08/26 12:25:35;;;;;;;5.85;2.72;;;20.80;99.90;;;;;;5113267;28;20028;-66
2023/08/26 12:28:17;;;;;;;9.98;2.95;;;20.90;99.90;;;;;;5098331;28;20036;-66
2023/08/26 12:30:45;;;;;;;10.15;4.22;;;21.10;99.90;;;;;;5093131;28;20043;-66
2023/08/26 12:33:11;;;;;;;6.53;2.40;;;21.10;99.90;;;;;;5093105;28;20468;-66
2023/08/26 12:35:38;;;;;;;7.25;3.00;;;20.80;99.90;;;;;;5092655;28;20046;-66
2023/08/26 12:38:04;;;;;;;6.38;2.00;;;20.60;99.90;;;;;;5092758;28;20498;-66
2023/08/26 12:40:34;;;;;;;6.00;3.08;;;20.40;99.90;;;;;;5102115;28;20114;-67